sensor_id;sensor_type;location;lat;lon;timestamp;pressure;altitude;pressure_sealevel;temperature;humidity
61205;BME280;47068;55.780;37.520;2024-02-15T00:01:25;101344.19;;;-9.68;74.72
61205;BME280;47068;55.780;37.520;2024-02-15T00:03:51;101327.84;;;-9.76;75.53
61205;BME280;47068;55.780;37.520;2024-02-15T00:06:16;101327.00;;;-9.63;78.29
61205;BME280;47068;55.780;37.520;2024-02-15T00:08:42;101320.16;;;-9.55;78.52
61205;BME280;47068;55.780;37.520;2024-02-15T00:11:07;101332.16;;;-9.63;77.65
61205;BME280;47068;55.780;37.520;2024-02-15T00:13:34;101326.16;;;-9.59;79.11
61205;BME280;47068;55.780;37.520;2024-02-15T00:16:01;101333.91;;;-9.54;80.70
61205;BME280;47068;55.780;37.520;2024-02-15T00:18:26;101333.03;;;-9.58;79.66
61205;BME280;47068;55.780;37.520;2024-02-15T00:20:52;101332.16;;;-9.63;79.58
61205;BME280;47068;55.780;37.520;2024-02-15T00:23:17;101335.63;;;-9.61;81.40
61205;BME280;47068;55.780;37.520;2024-02-15T00:25:43;101328.72;;;-9.47;81.21
61205;BME280;47068;55.780;37.520;2024-02-15T00:28:10;101321.03;;;-9.42;80.71
61205;BME280;47068;55.780;37.520;2024-02-15T00:30:35;101320.09;;;-9.75;79.84
61205;BME280;47068;55.780;37.520;2024-02-15T00:33:02;101327.00;;;-9.69;81.28
61205;BME280;47068;55.780;37.520;2024-02-15T00:35:28;101311.56;;;-9.69;80.35
61205;BME280;47068;55.780;37.520;2024-02-15T00:37:53;101310.69;;;-9.53;82.54
61205;BME280;47068;55.780;37.520;2024-02-15T00:40:18;101298.66;;;-9.59;80.43
61205;BME280;47068;55.780;37.520;2024-02-15T00:42:46;101306.41;;;-9.57;80.64
61205;BME280;47068;55.780;37.520;2024-02-15T00:45:11;101305.53;;;-9.51;81.93
61205;BME280;47068;55.780;37.520;2024-02-15T00:47:37;101314.13;;;-9.65;80.32
61205;BME280;47068;55.780;37.520;2024-02-15T00:50:03;101311.53;;;-9.90;78.27
61205;BME280;47068;55.780;37.520;2024-02-15T00:52:29;101300.31;;;-10.06;79.73
61205;BME280;47068;55.780;37.520;2024-02-15T00:54:55;101303.75;;;-10.01;80.84
61205;BME280;47068;55.780;37.520;2024-02-15T00:57:21;101300.31;;;-10.08;80.80
61205;BME280;47068;55.780;37.520;2024-02-15T00:59:46;101296.03;;;-10.06;81.24
61205;BME280;47068;55.780;37.520;2024-02-15T01:02:13;101302.91;;;-9.99;81.19
61205;BME280;47068;55.780;37.520;2024-02-15T01:04:38;101297.75;;;-10.11;80.99
61205;BME280;47068;55.780;37.520;2024-02-15T01:07:04;101302.88;;;-10.14;81.92
61205;BME280;47068;55.780;37.520;2024-02-15T01:09:29;101293.44;;;-10.22;81.06
61205;BME280;47068;55.780;37.520;2024-02-15T01:11:54;101295.16;;;-10.30;81.50
61205;BME280;47068;55.780;37.520;2024-02-15T01:14:20;101305.41;;;-10.38;82.12
61205;BME280;47068;55.780;37.520;2024-02-15T01:16:45;101308.78;;;-10.48;81.12
61205;BME280;47068;55.780;37.520;2024-02-15T01:19:11;101295.97;;;-10.39;83.02
61205;BME280;47068;55.780;37.520;2024-02-15T01:21:37;101298.56;;;-10.27;84.90
61205;BME280;47068;55.780;37.520;2024-02-15T01:24:02;101299.47;;;-10.10;84.48
61205;BME280;47068;55.780;37.520;2024-02-15T01:26:28;101295.19;;;-9.97;84.89
61205;BME280;47068;55.780;37.520;2024-02-15T01:28:54;101299.47;;;-10.04;83.05
61205;BME280;47068;55.780;37.520;2024-02-15T01:31:20;101304.63;;;-10.04;83.39
61205;BME280;47068;55.780;37.520;2024-02-15T01:33:45;101297.75;;;-10.20;80.98
61205;BME280;47068;55.780;37.520;2024-02-15T01:36:14;101298.59;;;-10.12;82.15
61205;BME280;47068;55.780;37.520;2024-02-15T01:38:41;101296.03;;;-10.07;82.60
61205;BME280;47068;55.780;37.520;2024-02-15T01:41:06;101292.63;;;-9.99;84.13
61205;BME280;47068;55.780;37.520;2024-02-15T01:43:32;101292.66;;;-9.89;83.92
61205;BME280;47068;55.780;37.520;2024-02-15T01:45:57;101308.94;;;-9.84;83.58
61205;BME280;47068;55.780;37.520;2024-02-15T01:48:25;101302.94;;;-9.85;83.09
61205;BME280;47068;55.780;37.520;2024-02-15T01:50:50;101296.06;;;-9.74;84.91
61205;BME280;47068;55.780;37.520;2024-02-15T01:53:16;101296.94;;;-9.72;84.41
61205;BME280;47068;55.780;37.520;2024-02-15T01:55:42;101296.06;;;-9.81;82.38
61205;BME280;47068;55.780;37.520;2024-02-15T01:58:08;101302.94;;;-9.86;82.94
61205;BME280;47068;55.780;37.520;2024-02-15T02:00:33;101304.63;;;-9.95;82.20
61205;BME280;47068;55.780;37.520;2024-02-15T02:03:00;101309.75;;;-10.10;82.20
61205;BME280;47068;55.780;37.520;2024-02-15T02:05:27;101305.44;;;-10.15;82.45
61205;BME280;47068;55.780;37.520;2024-02-15T02:07:56;101291.72;;;-10.25;83.02
61205;BME280;47068;55.780;37.520;2024-02-15T02:10:24;101293.38;;;-10.36;82.71
61205;BME280;47068;55.780;37.520;2024-02-15T02:12:50;101291.69;;;-10.40;81.55
61205;BME280;47068;55.780;37.520;2024-02-15T02:15:15;101299.44;;;-10.31;82.42
61205;BME280;47068;55.780;37.520;2024-02-15T02:17:41;101308.00;;;-10.29;83.63
61205;BME280;47068;55.780;37.520;2024-02-15T02:20:06;101308.84;;;-10.39;83.20
61205;BME280;47068;55.780;37.520;2024-02-15T02:22:34;101306.31;;;-10.24;85.22
61205;BME280;47068;55.780;37.520;2024-02-15T02:27:28;101322.66;;;-9.96;85.08
61205;BME280;47068;55.780;37.520;2024-02-15T02:29:55;101315.78;;;-10.18;83.53
61205;BME280;47068;55.780;37.520;2024-02-15T02:32:21;101304.59;;;-10.22;84.04
61205;BME280;47068;55.780;37.520;2024-02-15T02:34:46;101302.88;;;-10.20;85.54
61205;BME280;47068;55.780;37.520;2024-02-15T02:37:11;101297.72;;;-10.08;85.05
61205;BME280;47068;55.780;37.520;2024-02-15T02:39:38;101296.88;;;-10.13;85.32
61205;BME280;47068;55.780;37.520;2024-02-15T02:42:04;101307.19;;;-10.11;85.14
61205;BME280;47068;55.780;37.520;2024-02-15T02:44:29;101304.63;;;-10.19;84.87
61205;BME280;47068;55.780;37.520;2024-02-15T02:46:54;101307.19;;;-10.20;84.16
61205;BME280;47068;55.780;37.520;2024-02-15T02:49:20;101309.75;;;-10.10;84.89
61205;BME280;47068;55.780;37.520;2024-02-15T02:51:45;101305.47;;;-10.00;86.48
61205;BME280;47068;55.780;37.520;2024-02-15T02:54:10;101325.22;;;-9.98;85.95
61205;BME280;47068;55.780;37.520;2024-02-15T02:56:36;101312.31;;;-10.14;85.16
61205;BME280;47068;55.780;37.520;2024-02-15T02:59:01;101316.59;;;-10.13;85.29
61205;BME280;47068;55.780;37.520;2024-02-15T03:01:26;101315.75;;;-10.12;85.41
61205;BME280;47068;55.780;37.520;2024-02-15T03:03:52;101310.59;;;-10.23;84.36
61205;BME280;47068;55.780;37.520;2024-02-15T03:06:20;101326.88;;;-10.33;84.79
61205;BME280;47068;55.780;37.520;2024-02-15T03:08:45;101323.44;;;-10.32;85.03
61205;BME280;47068;55.780;37.520;2024-02-15T03:11:11;101324.28;;;-10.33;84.54
61205;BME280;47068;55.780;37.520;2024-02-15T03:13:37;101327.75;;;-10.22;86.53
61205;BME280;47068;55.780;37.520;2024-02-15T03:16:02;101322.63;;;-10.07;87.74
61205;BME280;47068;55.780;37.520;2024-02-15T03:18:29;101320.91;;;-10.05;86.60
61205;BME280;47068;55.780;37.520;2024-02-15T03:20:54;101330.41;;;-9.90;87.28
61205;BME280;47068;55.780;37.520;2024-02-15T03:23:20;101342.41;;;-9.90;86.64
61205;BME280;47068;55.780;37.520;2024-02-15T03:25:45;101335.50;;;-10.01;86.47
61205;BME280;47068;55.780;37.520;2024-02-15T03:28:10;101344.13;;;-9.80;87.82
61205;BME280;47068;55.780;37.520;2024-02-15T03:30:36;101338.19;;;-9.69;87.89
61205;BME280;47068;55.780;37.520;2024-02-15T03:33:01;101333.88;;;-9.59;88.42
61205;BME280;47068;55.780;37.520;2024-02-15T03:35:30;101340.75;;;-9.58;89.22
61205;BME280;47068;55.780;37.520;2024-02-15T03:37:56;101342.47;;;-9.65;88.64
61205;BME280;47068;55.780;37.520;2024-02-15T03:40:22;101339.88;;;-9.65;87.93
61205;BME280;47068;55.780;37.520;2024-02-15T03:42:48;101341.63;;;-9.68;88.52
61205;BME280;47068;55.780;37.520;2024-02-15T03:45:15;101335.59;;;-9.64;88.60
61205;BME280;47068;55.780;37.520;2024-02-15T03:47:41;101337.31;;;-9.54;89.95
61205;BME280;47068;55.780;37.520;2024-02-15T03:50:07;101335.63;;;-9.49;89.56
61205;BME280;47068;55.780;37.520;2024-02-15T03:52:36;101340.75;;;-9.58;88.40
61205;BME280;47068;55.780;37.520;2024-02-15T03:55:01;101344.19;;;-9.59;88.00
61205;BME280;47068;55.780;37.520;2024-02-15T03:57:27;101345.06;;;-9.49;88.82
61205;BME280;47068;55.780;37.520;2024-02-15T03:59:53;101341.63;;;-9.54;88.71
61205;BME280;47068;55.780;37.520;2024-02-15T04:02:20;101354.50;;;-9.58;88.92
61205;BME280;47068;55.780;37.520;2024-02-15T04:04:45;101356.22;;;-9.55;89.27
61205;BME280;47068;55.780;37.520;2024-02-15T04:07:18;101350.22;;;-9.62;88.18
61205;BME280;47068;55.780;37.520;2024-02-15T04:09:47;101361.34;;;-9.66;88.46
61205;BME280;47068;55.780;37.520;2024-02-15T04:12:12;101357.00;;;-9.86;86.60
61205;BME280;47068;55.780;37.520;2024-02-15T04:14:39;101359.53;;;-9.96;86.87
61205;BME280;47068;55.780;37.520;2024-02-15T04:17:05;101360.41;;;-10.00;87.28
61205;BME280;47068;55.780;37.520;2024-02-15T04:19:33;101357.88;;;-9.90;88.24
61205;BME280;47068;55.780;37.520;2024-02-15T04:21:59;101359.59;;;-9.80;89.12
61205;BME280;47068;55.780;37.520;2024-02-15T04:24:32;101346.69;;;-9.86;88.78
61205;BME280;47068;55.780;37.520;2024-02-15T04:26:57;101350.09;;;-10.04;88.00
61205;BME280;47068;55.780;37.520;2024-02-15T04:29:23;101359.53;;;-10.11;87.48
61205;BME280;47068;55.780;37.520;2024-02-15T04:31:49;101357.78;;;-10.21;87.92
61205;BME280;47068;55.780;37.520;2024-02-15T04:34:28;101348.31;;;-10.32;87.29
61205;BME280;47068;55.780;37.520;2024-02-15T04:36:53;101353.50;;;-10.23;87.55
61205;BME280;47068;55.780;37.520;2024-02-15T04:39:19;101359.47;;;-10.15;88.41
61205;BME280;47068;55.780;37.520;2024-02-15T04:41:53;101356.91;;;-10.15;88.06
61205;BME280;47068;55.780;37.520;2024-02-15T04:44:18;101356.94;;;-10.24;88.36
61205;BME280;47068;55.780;37.520;2024-02-15T04:46:48;101356.03;;;-10.28;87.71
61205;BME280;47068;55.780;37.520;2024-02-15T04:49:14;101362.91;;;-10.27;89.01
61205;BME280;47068;55.780;37.520;2024-02-15T04:51:40;101356.91;;;-10.30;88.78
61205;BME280;47068;55.780;37.520;2024-02-15T04:54:06;101359.44;;;-10.33;88.40
61205;BME280;47068;55.780;37.520;2024-02-15T04:56:32;101354.34;;;-10.23;88.74
61205;BME280;47068;55.780;37.520;2024-02-15T04:58:58;101357.78;;;-10.24;89.57
61205;BME280;47068;55.780;37.520;2024-02-15T05:01:23;101364.66;;;-10.21;89.11
61205;BME280;47068;55.780;37.520;2024-02-15T05:03:49;101372.38;;;-10.18;89.60
61205;BME280;47068;55.780;37.520;2024-02-15T05:06:16;101355.19;;;-10.27;89.72
61205;BME280;47068;55.780;37.520;2024-02-15T05:08:42;101368.91;;;-10.31;88.54
61205;BME280;47068;55.780;37.520;2024-02-15T05:11:08;101367.19;;;-10.27;89.62
61205;BME280;47068;55.780;37.520;2024-02-15T05:13:39;101372.34;;;-10.26;90.77
61205;BME280;47068;55.780;37.520;2024-02-15T05:16:05;101386.91;;;-10.32;89.56
61205;BME280;47068;55.780;37.520;2024-02-15T05:18:31;101379.19;;;-10.31;90.70
61205;BME280;47068;55.780;37.520;2024-02-15T05:20:57;101384.34;;;-10.28;91.71
61205;BME280;47068;55.780;37.520;2024-02-15T05:23:23;101392.97;;;-10.14;91.22
61205;BME280;47068;55.780;37.520;2024-02-15T05:25:48;101398.13;;;-10.09;92.85
61205;BME280;47068;55.780;37.520;2024-02-15T05:28:14;101403.28;;;-10.02;91.95
61205;BME280;47068;55.780;37.520;2024-02-15T05:30:40;101407.66;;;-9.90;92.59
61205;BME280;47068;55.780;37.520;2024-02-15T05:33:05;101418.84;;;-9.79;93.87
61205;BME280;47068;55.780;37.520;2024-02-15T05:35:35;101405.94;;;-9.80;93.24
61205;BME280;47068;55.780;37.520;2024-02-15T05:38:01;101430.84;;;-9.85;93.58
61205;BME280;47068;55.780;37.520;2024-02-15T05:40:29;101424.81;;;-9.90;93.68
61205;BME280;47068;55.780;37.520;2024-02-15T05:42:56;101418.81;;;-9.85;93.79
61205;BME280;47068;55.780;37.520;2024-02-15T05:47:49;101435.13;;;-9.80;95.11
61205;BME280;47068;55.780;37.520;2024-02-15T05:50:15;101437.69;;;-9.81;94.82
61205;BME280;47068;55.780;37.520;2024-02-15T05:52:40;101434.28;;;-9.80;94.71
61205;BME280;47068;55.780;37.520;2024-02-15T05:55:06;101442.00;;;-9.80;94.27
61205;BME280;47068;55.780;37.520;2024-02-15T05:57:31;101443.69;;;-9.88;94.09
61205;BME280;47068;55.780;37.520;2024-02-15T05:59:57;101441.97;;;-9.86;95.40
61205;BME280;47068;55.780;37.520;2024-02-15T06:02:27;101448.03;;;-9.83;95.18
61205;BME280;47068;55.780;37.520;2024-02-15T06:04:52;101437.72;;;-9.84;95.59
61205;BME280;47068;55.780;37.520;2024-02-15T06:07:19;101442.84;;;-9.81;95.44
61205;BME280;47068;55.780;37.520;2024-02-15T06:09:45;101435.13;;;-9.81;95.47
61205;BME280;47068;55.780;37.520;2024-02-15T06:12:11;101444.59;;;-9.82;94.41
61205;BME280;47068;55.780;37.520;2024-02-15T06:14:36;101455.72;;;-9.81;94.39
61205;BME280;47068;55.780;37.520;2024-02-15T06:17:02;101454.03;;;-9.79;95.63
61205;BME280;47068;55.780;37.520;2024-02-15T06:19:27;101454.03;;;-9.79;94.53
61205;BME280;47068;55.780;37.520;2024-02-15T06:21:52;101449.75;;;-9.82;94.88
61205;BME280;47068;55.780;37.520;2024-02-15T06:24:18;101454.03;;;-9.82;95.22
61205;BME280;47068;55.780;37.520;2024-02-15T06:26:44;101454.88;;;-9.85;94.68
61205;BME280;47068;55.780;37.520;2024-02-15T06:29:10;101454.88;;;-9.83;95.35
61205;BME280;47068;55.780;37.520;2024-02-15T06:31:53;101452.31;;;-9.79;95.45
61205;BME280;47068;55.780;37.520;2024-02-15T06:34:37;101458.31;;;-9.83;95.65
61205;BME280;47068;55.780;37.520;2024-02-15T06:37:37;101466.03;;;-9.86;94.41
61205;BME280;47068;55.780;37.520;2024-02-15T06:40:21;101456.59;;;-9.81;94.77
61205;BME280;47068;55.780;37.520;2024-02-15T06:42:46;101458.31;;;-9.78;94.44
61205;BME280;47068;55.780;37.520;2024-02-15T06:45:12;101461.75;;;-9.81;95.32
61205;BME280;47068;55.780;37.520;2024-02-15T06:47:41;101455.75;;;-9.78;95.31
61205;BME280;47068;55.780;37.520;2024-02-15T06:50:07;101460.94;;;-9.75;95.14
61205;BME280;47068;55.780;37.520;2024-02-15T06:52:34;101458.38;;;-9.71;94.94
61205;BME280;47068;55.780;37.520;2024-02-15T06:54:59;101461.78;;;-9.72;95.54
61205;BME280;47068;55.780;37.520;2024-02-15T06:57:25;101452.38;;;-9.68;95.45
61205;BME280;47068;55.780;37.520;2024-02-15T06:59:51;101464.41;;;-9.61;95.32
61205;BME280;47068;55.780;37.520;2024-02-15T07:02:16;101458.44;;;-9.49;94.59
61205;BME280;47068;55.780;37.520;2024-02-15T07:04:43;101463.59;;;-9.37;95.34
61205;BME280;47068;55.780;37.520;2024-02-15T07:07:10;101455.03;;;-9.30;96.03
61205;BME280;47068;55.780;37.520;2024-02-15T07:09:37;101459.34;;;-9.28;95.96
61205;BME280;47068;55.780;37.520;2024-02-15T07:12:03;101457.63;;;-9.23;95.32
61205;BME280;47068;55.780;37.520;2024-02-15T07:14:29;101454.19;;;-9.17;95.57
61205;BME280;47068;55.780;37.520;2024-02-15T07:16:54;101457.66;;;-9.13;95.08
61205;BME280;47068;55.780;37.520;2024-02-15T07:19:23;101458.50;;;-9.14;95.85
61205;BME280;47068;55.780;37.520;2024-02-15T07:21:49;101466.25;;;-9.08;95.89
61205;BME280;47068;55.780;37.520;2024-02-15T07:24:16;101380.28;;;-9.54;95.31
61205;BME280;47068;55.780;37.520;2024-02-15T07:26:41;101468.81;;;-8.98;95.32
61205;BME280;47068;55.780;37.520;2024-02-15T07:29:06;101468.00;;;-8.86;95.64
61205;BME280;47068;55.780;37.520;2024-02-15T07:31:33;101469.69;;;-8.70;95.40
61205;BME280;47068;55.780;37.520;2024-02-15T07:33:58;101464.53;;;-8.52;95.92
61205;BME280;47068;55.780;37.520;2024-02-15T07:36:24;101463.66;;;-8.37;95.50
61205;BME280;47068;55.780;37.520;2024-02-15T07:38:52;101464.53;;;-8.30;95.25
61205;BME280;47068;55.780;37.520;2024-02-15T07:41:18;101469.63;;;-8.17;95.93
61205;BME280;47068;55.780;37.520;2024-02-15T07:43:46;101473.91;;;-8.13;96.04
61205;BME280;47068;55.780;37.520;2024-02-15T07:46:12;101473.88;;;-8.04;95.50
61205;BME280;47068;55.780;37.520;2024-02-15T07:48:39;101484.16;;;-7.95;95.92
61205;BME280;47068;55.780;37.520;2024-02-15T07:51:09;101472.97;;;-7.92;95.66
61205;BME280;47068;55.780;37.520;2024-02-15T07:53:34;101479.00;;;-7.93;95.34
61205;BME280;47068;55.780;37.520;2024-02-15T07:56:00;101491.03;;;-7.86;95.36
61205;BME280;47068;55.780;37.520;2024-02-15T07:58:25;101504.84;;;-7.90;95.26
61205;BME280;47068;55.780;37.520;2024-02-15T08:00:51;101494.53;;;-8.01;94.92
61205;BME280;47068;55.780;37.520;2024-02-15T08:03:16;101497.97;;;-8.02;95.38
61205;BME280;47068;55.780;37.520;2024-02-15T08:05:41;101491.06;;;-7.92;95.75
61205;BME280;47068;55.780;37.520;2024-02-15T08:08:07;101476.34;;;-7.72;95.82
61205;BME280;47068;55.780;37.520;2024-02-15T08:10:32;101486.72;;;-7.78;95.77
61205;BME280;47068;55.780;37.520;2024-02-15T08:12:58;101486.72;;;-7.81;95.80
61205;BME280;47068;55.780;37.520;2024-02-15T08:15:24;101490.16;;;-7.79;96.14
61205;BME280;47068;55.780;37.520;2024-02-15T08:17:52;101497.88;;;-7.68;96.18
61205;BME280;47068;55.780;37.520;2024-02-15T08:20:20;101493.50;;;-7.52;95.96
61205;BME280;47068;55.780;37.520;2024-02-15T08:22:46;101496.91;;;-7.46;96.41
61205;BME280;47068;55.780;37.520;2024-02-15T08:25:12;101488.31;;;-7.49;96.51
61205;BME280;47068;55.780;37.520;2024-02-15T08:27:41;101498.63;;;-7.46;96.45
61205;BME280;47068;55.780;37.520;2024-02-15T08:30:09;101494.31;;;-7.44;96.17
61205;BME280;47068;55.780;37.520;2024-02-15T08:32:36;101494.31;;;-7.43;96.22
61205;BME280;47068;55.780;37.520;2024-02-15T08:35:01;101494.34;;;-7.50;95.88
61205;BME280;47068;55.780;37.520;2024-02-15T08:37:29;101503.84;;;-7.48;96.06
61205;BME280;47068;55.780;37.520;2024-02-15T08:39:55;101495.22;;;-7.47;96.13
61205;BME280;47068;55.780;37.520;2024-02-15T08:42:22;101496.88;;;-7.38;96.05
61205;BME280;47068;55.780;37.520;2024-02-15T08:44:50;101510.66;;;-7.33;95.92
61205;BME280;47068;55.780;37.520;2024-02-15T08:47:16;101509.84;;;-7.41;95.71
61205;BME280;47068;55.780;37.520;2024-02-15T08:49:41;101508.13;;;-7.48;95.74
61205;BME280;47068;55.780;37.520;2024-02-15T08:52:07;101492.69;;;-7.61;95.37
61205;BME280;47068;55.780;37.520;2024-02-15T08:54:35;101495.31;;;-7.76;95.05
61205;BME280;47068;55.780;37.520;2024-02-15T08:57:04;101507.38;;;-7.81;94.69
61205;BME280;47068;55.780;37.520;2024-02-15T08:59:29;101504.81;;;-7.82;94.89
61205;BME280;47068;55.780;37.520;2024-02-15T09:01:55;101509.16;;;-7.92;94.29
61205;BME280;47068;55.780;37.520;2024-02-15T09:04:21;101510.91;;;-8.03;94.45
61205;BME280;47068;55.780;37.520;2024-02-15T09:06:49;101502.31;;;-8.14;94.36
61205;BME280;47068;55.780;37.520;2024-02-15T09:09:14;101499.72;;;-8.20;94.49
61205;BME280;47068;55.780;37.520;2024-02-15T09:11:40;101513.53;;;-8.24;94.80
61205;BME280;47068;55.780;37.520;2024-02-15T09:14:05;101504.06;;;-8.27;94.85
61205;BME280;47068;55.780;37.520;2024-02-15T09:16:31;101504.06;;;-8.25;94.91
61205;BME280;47068;55.780;37.520;2024-02-15T09:18:57;101502.31;;;-8.29;94.95
61205;BME280;47068;55.780;37.520;2024-02-15T09:21:25;101509.25;;;-8.33;94.96
61205;BME280;47068;55.780;37.520;2024-02-15T09:23:53;101511.84;;;-8.41;94.52
61205;BME280;47068;55.780;37.520;2024-02-15T09:26:18;101517.88;;;-8.45;94.30
61205;BME280;47068;55.780;37.520;2024-02-15T09:28:44;101516.16;;;-8.40;94.70
61205;BME280;47068;55.780;37.520;2024-02-15T09:31:12;101517.00;;;-8.31;94.85
61205;BME280;47068;55.780;37.520;2024-02-15T09:33:38;101512.66;;;-8.26;95.63
61205;BME280;47068;55.780;37.520;2024-02-15T09:36:04;101516.09;;;-8.29;95.18
61205;BME280;47068;55.780;37.520;2024-02-15T09:38:29;101515.28;;;-8.36;95.07
61205;BME280;47068;55.780;37.520;2024-02-15T09:40:54;101511.00;;;-8.46;95.04
61205;BME280;47068;55.780;37.520;2024-02-15T09:43:20;101508.41;;;-8.49;94.85
61205;BME280;47068;55.780;37.520;2024-02-15T09:45:46;101508.38;;;-8.50;95.27
61205;BME280;47068;55.780;37.520;2024-02-15T09:48:12;101511.00;;;-8.52;94.70
61205;BME280;47068;55.780;37.520;2024-02-15T09:50:39;101519.56;;;-8.50;95.43
61205;BME280;47068;55.780;37.520;2024-02-15T09:53:07;101514.41;;;-8.50;94.88
61205;BME280;47068;55.780;37.520;2024-02-15T09:55:34;101512.69;;;-8.48;95.01
61205;BME280;47068;55.780;37.520;2024-02-15T09:58:00;101512.69;;;-8.48;94.36
61205;BME280;47068;55.780;37.520;2024-02-15T10:00:26;101507.56;;;-8.45;94.80
61205;BME280;47068;55.780;37.520;2024-02-15T10:02:51;101510.13;;;-8.34;94.90
61205;BME280;47068;55.780;37.520;2024-02-15T10:05:21;101514.38;;;-8.28;95.06
61205;BME280;47068;55.780;37.520;2024-02-15T10:07:48;101513.53;;;-8.37;95.56
61205;BME280;47068;55.780;37.520;2024-02-15T10:12:48;101525.56;;;-8.20;95.20
61205;BME280;47068;55.780;37.520;2024-02-15T10:17:59;101520.38;;;-8.04;95.58
61205;BME280;47068;55.780;37.520;2024-02-15T10:20:25;101535.00;;;-7.98;95.84
61205;BME280;47068;55.780;37.520;2024-02-15T10:25:28;101525.56;;;-8.10;94.58
61205;BME280;47068;55.780;37.520;2024-02-15T10:28:27;101516.94;;;-8.12;95.24
61205;BME280;47068;55.780;37.520;2024-02-15T10:30:45;101522.97;;;-8.14;94.27
61205;BME280;47068;55.780;37.520;2024-02-15T10:33:19;101526.41;;;-8.15;94.39
61205;BME280;47068;55.780;37.520;2024-02-15T10:35:50;101533.28;;;-8.14;94.54
61205;BME280;47068;55.780;37.520;2024-02-15T10:38:30;101533.31;;;-8.11;94.27
61205;BME280;47068;55.780;37.520;2024-02-15T10:41:01;101529.81;;;-8.01;94.69
61205;BME280;47068;55.780;37.520;2024-02-15T10:43:28;101527.25;;;-8.04;95.15
61205;BME280;47068;55.780;37.520;2024-02-15T10:45:53;101531.56;;;-8.03;94.64
61205;BME280;47068;55.780;37.520;2024-02-15T10:48:20;101529.81;;;-8.01;94.80
61205;BME280;47068;55.780;37.520;2024-02-15T10:50:45;101535.00;;;-7.98;94.59
61205;BME280;47068;55.780;37.520;2024-02-15T10:53:26;101534.97;;;-7.93;94.45
61205;BME280;47068;55.780;37.520;2024-02-15T10:58:39;101524.66;;;-7.98;95.13
61205;BME280;47068;55.780;37.520;2024-02-15T11:01:08;101524.66;;;-7.98;95.05
61205;BME280;47068;55.780;37.520;2024-02-15T11:03:39;101514.31;;;-7.95;94.72
61205;BME280;47068;55.780;37.520;2024-02-15T11:06:07;101528.09;;;-7.95;94.32
61205;BME280;47068;55.780;37.520;2024-02-15T11:08:35;101528.97;;;-7.99;94.32
61205;BME280;47068;55.780;37.520;2024-02-15T11:11:01;101517.78;;;-8.05;93.98
61205;BME280;47068;55.780;37.520;2024-02-15T11:13:29;101525.50;;;-7.95;94.65
61205;BME280;47068;55.780;37.520;2024-02-15T11:15:55;101527.22;;;-7.93;94.98
61205;BME280;47068;55.780;37.520;2024-02-15T11:21:04;101530.63;;;-7.78;94.82
61205;BME280;47068;55.780;37.520;2024-02-15T11:23:30;101527.16;;;-7.65;95.38
61205;BME280;47068;55.780;37.520;2024-02-15T11:25:55;101519.38;;;-7.57;95.96
61205;BME280;47068;55.780;37.520;2024-02-15T11:30:52;101528.00;;;-7.63;95.70
61205;BME280;47068;55.780;37.520;2024-02-15T11:33:36;101530.59;;;-7.67;95.46
61205;BME280;47068;55.780;37.520;2024-02-15T11:36:11;101535.75;;;-7.64;95.28
61205;BME280;47068;55.780;37.520;2024-02-15T11:38:37;101541.81;;;-7.61;95.77
61205;BME280;47068;55.780;37.520;2024-02-15T11:41:06;101535.75;;;-7.60;95.72
61205;BME280;47068;55.780;37.520;2024-02-15T11:43:50;101550.41;;;-7.66;95.44
61205;BME280;47068;55.780;37.520;2024-02-15T11:46:27;101546.09;;;-7.66;95.45
61205;BME280;47068;55.780;37.520;2024-02-15T11:48:57;101553.88;;;-7.79;95.01
61205;BME280;47068;55.780;37.520;2024-02-15T11:51:33;101541.00;;;-7.85;95.00
61205;BME280;47068;55.780;37.520;2024-02-15T11:54:05;101553.06;;;-7.81;95.65
61205;BME280;47068;55.780;37.520;2024-02-15T11:57:16;101555.63;;;-7.86;95.50
61205;BME280;47068;55.780;37.520;2024-02-15T11:59:19;101550.47;;;-7.83;94.86
61205;BME280;47068;55.780;37.520;2024-02-15T12:01:55;101536.66;;;-7.73;95.85
61205;BME280;47068;55.780;37.520;2024-02-15T12:04:39;101547.00;;;-7.70;95.90
61205;BME280;47068;55.780;37.520;2024-02-15T12:07:23;101554.72;;;-7.74;96.05
61205;BME280;47068;55.780;37.520;2024-02-15T12:10:07;101542.69;;;-7.72;96.19
61205;BME280;47068;55.780;37.520;2024-02-15T12:12:51;101550.44;;;-7.68;96.08
61205;BME280;47068;55.780;37.520;2024-02-15T12:15:36;101544.41;;;-7.68;96.19
61205;BME280;47068;55.780;37.520;2024-02-15T12:18:20;101543.53;;;-7.69;96.10
61205;BME280;47068;55.780;37.520;2024-02-15T12:21:03;101545.28;;;-7.77;95.95
61205;BME280;47068;55.780;37.520;2024-02-15T12:23:30;101561.63;;;-7.72;96.22
61205;BME280;47068;55.780;37.520;2024-02-15T12:25:58;101553.06;;;-7.84;95.39
61205;BME280;47068;55.780;37.520;2024-02-15T12:28:24;101553.94;;;-7.96;95.07
61205;BME280;47068;55.780;37.520;2024-02-15T12:30:54;101568.56;;;-7.93;95.40
61205;BME280;47068;55.780;37.520;2024-02-15T12:33:19;101557.38;;;-7.97;95.42
61205;BME280;47068;55.780;37.520;2024-02-15T12:35:46;101553.09;;;-7.97;95.37
61205;BME280;47068;55.780;37.520;2024-02-15T12:38:14;101564.28;;;-8.05;95.47
61205;BME280;47068;55.780;37.520;2024-02-15T12:40:41;101557.38;;;-8.06;95.30
61205;BME280;47068;55.780;37.520;2024-02-15T12:43:07;101559.97;;;-8.03;95.21
61205;BME280;47068;55.780;37.520;2024-02-15T12:45:37;101562.53;;;-7.94;95.79
61205;BME280;47068;55.780;37.520;2024-02-15T12:48:03;101555.66;;;-8.00;95.35
61205;BME280;47068;55.780;37.520;2024-02-15T12:50:29;101555.66;;;-7.92;95.24
61205;BME280;47068;55.780;37.520;2024-02-15T12:52:55;101556.50;;;-7.85;95.48
61205;BME280;47068;55.780;37.520;2024-02-15T12:55:21;101558.22;;;-7.90;95.66
61205;BME280;47068;55.780;37.520;2024-02-15T12:57:53;101560.81;;;-7.98;94.87
61205;BME280;47068;55.780;37.520;2024-02-15T13:00:19;101555.63;;;-7.95;94.98